ADDS METAR Data INFO
IDs: Format: Raw Decoded Include TAF

Data at: 1920 UTC 19 Jul 2018

KASW 191915Z AUTO 13005KT 10SM BKN060 28/13 A2999 RMK AO2
KASW 191855Z AUTO 14008G14KT 107V167 10SM BKN060 27/13 A3000 RMK AO2
KASW 191835Z AUTO 16006KT 10SM BKN060 27/13 A3001 RMK AO2
KASW 191815Z AUTO 15008KT 10SM BKN060 28/12 A3001 RMK AO2
KASW 191755Z AUTO 18003G16KT 10SM BKN060 27/13 A3001 RMK AO2
KASW 191735Z AUTO 18006G14KT 10SM SCT050 28/13 A3001 RMK AO2
KASW 191715Z AUTO 15007G17KT 107V277 10SM SCT050 27/13 A3002 RMK AO2
KASW 191655Z AUTO 13009KT 10SM SCT049 27/14 A3002 RMK AO2
KASW 191635Z AUTO 15007KT 107V177 10SM CLR 27/15 A3003 RMK AO2
KASW 191615Z AUTO 13009G14KT 10SM CLR 27/15 A3004 RMK AO2
KASW 191555Z AUTO 16007KT 127V187 10SM CLR 26/15 A3004 RMK AO2
KASW 191535Z AUTO 17006KT 10SM CLR 25/14 A3004 RMK AO2
KASW 191520Z AUTO 16007KT 127V197 10SM CLR 26/15 A3004 RMK AO2
KASW 191455Z AUTO 19005KT 10SM CLR 25/15 A3005 RMK AO2
KASW 191435Z AUTO 14005KT 10SM CLR 24/15 A3005 RMK AO2
KASW 191420Z AUTO 13007KT 10SM CLR 23/15 A3006 RMK AO2
KASW 191355Z AUTO 13005KT 10SM CLR 23/15 A3006 RMK AO2
KASW 191335Z AUTO 14005KT 10SM CLR 22/14 A3006 RMK AO2
KASW 191315Z AUTO 13006KT 10SM CLR 21/14 A3006 RMK AO2
KASW 191255Z AUTO 13005KT 10SM CLR 20/13 A3006 RMK AO2
KASW 191235Z AUTO 12003KT 10SM CLR 19/13 A3006 RMK AO2
KASW 191215Z AUTO 12003KT 10SM CLR 17/14 A3006 RMK AO2
KASW 191155Z AUTO 11003KT 10SM CLR 16/14 A3005 RMK AO2
KASW 191135Z AUTO 00000KT 10SM CLR 16/13 A3005 RMK AO2
KASW 191115Z AUTO 00000KT 10SM CLR 16/13 A3005 RMK AO2
KASW 191055Z AUTO 00000KT 10SM CLR 15/13 A3005 RMK AO2
KASW 191035Z AUTO 00000KT 10SM CLR 15/13 A3005 RMK AO2
KASW 191015Z AUTO 00000KT 10SM CLR 15/13 A3005 RMK AO2
KASW 190955Z AUTO 00000KT 10SM CLR 15/14 A3005 RMK AO2
KASW 190935Z AUTO 00000KT 10SM CLR 15/14 A3004 RMK AO2
KASW 190915Z AUTO 00000KT 10SM CLR 16/14 A3004 RMK AO2
KASW 190855Z AUTO 11003KT 10SM CLR 15/13 A3005 RMK AO2
KASW 190835Z AUTO 00000KT 10SM CLR 15/14 A3005 RMK AO2
KASW 190815Z AUTO 00000KT 10SM CLR 15/14 A3005 RMK AO2
KASW 190755Z AUTO 00000KT 10SM CLR 14/13 A3005 RMK AO2
KASW 190735Z AUTO 00000KT 10SM CLR 15/13 A3005 RMK AO2
KASW 190715Z AUTO 00000KT 10SM CLR 15/13 A3005 RMK AO2
KASW 190655Z AUTO 00000KT 10SM CLR 16/13 A3005 RMK AO2
KASW 190635Z AUTO 00000KT 10SM CLR 16/14 A3005 RMK AO2
KASW 190615Z AUTO 00000KT 10SM CLR 16/14 A3005 RMK AO2
KASW 190555Z AUTO 00000KT 10SM CLR 17/14 A3005 RMK AO2
KASW 190535Z AUTO 00000KT 10SM CLR 17/14 A3006 RMK AO2
KASW 190515Z AUTO 00000KT 10SM CLR 17/13 A3006 RMK AO2
KASW 190455Z AUTO 00000KT 10SM CLR 17/14 A3006 RMK AO2
KASW 190435Z AUTO 00000KT 10SM CLR 17/14 A3006 RMK AO2
KASW 190415Z AUTO 00000KT 10SM CLR 18/13 A3006 RMK AO2
KASW 190355Z AUTO 02003KT 10SM CLR 18/13 A3005 RMK AO2
KASW 190335Z AUTO 02003KT 10SM CLR 19/13 A3006 RMK AO2
KASW 190315Z AUTO 00000KT 10SM CLR 19/13 A3006 RMK AO2
KASW 190255Z AUTO 36003KT 10SM CLR 19/14 A3006 RMK AO2
KASW 190235Z AUTO 35003KT 10SM CLR 20/14 A3005 RMK AO2
KASW 190215Z AUTO 00000KT 10SM CLR 19/14 A3005 RMK AO2
KASW 190155Z AUTO 00000KT 10SM CLR 20/13 A3004 RMK AO2
KASW 190135Z AUTO 00000KT 10SM CLR 21/13 A3004 RMK AO2
KASW 190115Z AUTO 00000KT 10SM CLR 23/13 A3004 RMK AO2
KASW 190055Z AUTO 00000KT 10SM BKN060 23/13 A3004 RMK AO2
KASW 190035Z AUTO 00000KT 10SM OVC060 25/13 A3004 RMK AO2
KASW 190015Z AUTO 00000KT 10SM BKN060 26/12 A3004 RMK AO2
KASW 182355Z AUTO 09003KT 10SM OVC060 26/12 A3004 RMK AO2
KASW 182335Z AUTO 09004KT 10SM OVC060 27/12 A3003 RMK AO2
KASW 182315Z AUTO 09005KT 10SM OVC060 27/12 A3003 RMK AO2
KASW 182255Z AUTO 07005KT 10SM BKN060 27/13 A3003 RMK AO2
KASW 182235Z AUTO 29003KT 10SM CLR 27/12 A3004 RMK AO2
KASW 182215Z AUTO 33003KT 10SM CLR 26/12 A3004 RMK AO2
KASW 182155Z AUTO 35003KT 10SM SCT060 27/12 A3004 RMK AO2
KASW 182135Z AUTO 00000KT 10SM BKN060 26/12 A3005 RMK AO2
KASW 182115Z AUTO 05004KT 10SM BKN060 26/12 A3006 RMK AO2
KASW 182055Z AUTO 00000KT 10SM BKN060 27/12 A3006 RMK AO2
KASW 182035Z AUTO 02004KT 10SM OVC060 26/12 A3006 RMK AO2
KASW 182015Z AUTO 04004KT 10SM OVC060 26/12 A3007 RMK AO2
KASW 182000Z AUTO 13004KT 10SM BKN060 26/12 A3007 RMK AO2
KASW 181935Z AUTO 04003KT 10SM SCT060 26/11 A3008 RMK AO2
KASW 181915Z AUTO 00000KT 10SM BKN060 26/11 A3008 RMK AO2
KASW 181855Z AUTO 06004KT 10SM SCT060 26/11 A3008 RMK AO2
KASW 181835Z AUTO 00000KT 10SM SCT050 26/12 A3009 RMK AO2
KASW 181815Z AUTO 08006KT 10SM BKN050 27/13 A3009 RMK AO2
KASW 181755Z AUTO 00000KT 10SM SCT050 26/12 A3009 RMK AO2
KASW 181735Z AUTO 13004KT 10SM BKN050 26/12 A3009 RMK AO2
KASW 181715Z AUTO 09003KT 10SM SCT048 BKN055 26/13 A3010 RMK AO2
KASW 181655Z AUTO 03003KT 10SM SCT046 25/13 A3011 RMK AO2
KASW 181635Z AUTO 01003KT 10SM SCT039 SCT046 25/13 A3011 RMK AO2
KASW 181615Z AUTO 02004KT 10SM BKN039 BKN048 23/13 A3011 RMK AO2
KASW 181555Z AUTO 03004KT 10SM SCT034 SCT045 24/14 A3012 RMK AO2
KASW 181535Z AUTO 36005KT 10SM SCT034 23/15 A3011 RMK AO2
KASW 181515Z AUTO 12003KT 10SM CLR 23/15 A3011 RMK AO2
KASW 181455Z AUTO 12005KT 10SM CLR 23/15 A3011 RMK AO2
KASW 181435Z AUTO 07005KT 10SM CLR 22/15 A3011 RMK AO2
KASW 181415Z AUTO 09004KT 10SM CLR 21/15 A3012 RMK AO2
KASW 181355Z AUTO 05005KT 10SM CLR 21/15 A3012 RMK AO2
KASW 181335Z AUTO 07003KT 10SM CLR 20/14 A3012 RMK AO2
KASW 181315Z AUTO 05004KT 10SM CLR 19/14 A3012 RMK AO2
KASW 181255Z AUTO 06004KT 10SM CLR 18/14 A3012 RMK AO2
KASW 181235Z AUTO 03003KT 10SM CLR 17/13 A3012 RMK AO2
KASW 181215Z AUTO 05004KT 10SM CLR 17/13 A3012 RMK AO2
KASW 181155Z AUTO 00000KT 10SM CLR 16/13 A3012 RMK AO2
KASW 181135Z AUTO 00000KT 10SM CLR 15/13 A3012 RMK AO2
KASW 181115Z AUTO 00000KT 10SM CLR 13/12 A3012 RMK AO2
KASW 181055Z AUTO 00000KT 10SM CLR 13/12 A3012 RMK AO2
KASW 181035Z AUTO 00000KT 10SM CLR 12/12 A3011 RMK AO2
KASW 181015Z AUTO 00000KT 10SM CLR 12/12 A3010 RMK AO2
KASW 180955Z AUTO 00000KT 10SM CLR 13/12 A3010 RMK AO2
KASW 180935Z AUTO 00000KT 10SM CLR 13/12 A3010 RMK AO2
KASW 180915Z AUTO 00000KT 10SM CLR 13/12 A3010 RMK AO2
KASW 180855Z AUTO 00000KT 10SM CLR 13/12 A3009 RMK AO2
KASW 180835Z AUTO 00000KT 10SM CLR 14/12 A3009 RMK AO2
KASW 180815Z AUTO 00000KT 10SM CLR 14/12 A3009 RMK AO2
KASW 180755Z AUTO 00000KT 10SM CLR 15/12 A3009 RMK AO2
KASW 180735Z AUTO 00000KT 10SM CLR 15/12 A3009 RMK AO2